Time;durP1;ratioP1;P1;durP2;ratioP2;P2;SDS_P1;SDS_P2;PMS_P1;PMS_P2;Temp;Humidity;BMP_temperature;BMP_pressure;BME280_temperature;BME280_humidity;BME280_pressure;Samples;Min_cycle;Max_cycle;Signal;HPM_P1;HPM_P2
2023/02/13 00:01:51;;;;;;;7.72;6.93;;;21.30;34.60;;;;;;5045197;28;20457;-55
2023/02/13 00:04:16;;;;;;;6.82;6.13;;;21.30;34.60;;;;;;5067187;28;20080;-58
2023/02/13 00:06:42;;;;;;;7.47;6.63;;;21.30;34.60;;;;;;5061851;28;20472;-57
2023/02/13 00:09:09;;;;;;;7.28;6.38;;;21.20;34.50;;;;;;5060423;28;20040;-58
2023/02/13 00:11:36;;;;;;;6.53;5.82;;;21.30;34.60;;;;;;5040321;28;20488;-57
2023/02/13 00:14:02;;;;;;;7.13;5.75;;;21.20;34.50;;;;;;5060316;28;20151;-57
2023/02/13 00:16:28;;;;;;;7.68;6.70;;;21.20;34.50;;;;;;5064258;28;20368;-58
2023/02/13 00:18:53;;;;;;;7.72;6.32;;;21.20;34.60;;;;;;5063093;28;20102;-58
2023/02/13 00:21:19;;;;;;;5.95;5.35;;;21.20;34.50;;;;;;5068703;28;20029;-57
2023/02/13 00:23:45;;;;;;;7.72;6.13;;;21.20;34.60;;;;;;5046014;28;20406;-58
2023/02/13 00:26:13;;;;;;;7.13;5.82;;;21.20;34.60;;;;;;5064551;28;20024;-57
2023/02/13 00:28:43;;;;;;;6.72;6.00;;;21.20;34.60;;;;;;5064379;28;20474;-57
2023/02/13 00:31:15;;;;;;;6.65;5.93;;;21.20;34.60;;;;;;5047879;28;20112;-57
2023/02/13 00:33:41;;;;;;;7.07;5.97;;;21.20;34.60;;;;;;5044383;28;20025;-58
2023/02/13 00:36:13;;;;;;;6.43;5.45;;;21.20;34.60;;;;;;5066414;28;20436;-57
2023/02/13 00:38:40;;;;;;;8.45;5.85;;;21.20;34.60;;;;;;5062571;28;20032;-58
2023/02/13 00:41:06;;;;;;;6.22;5.63;;;21.20;34.60;;;;;;5066888;28;20048;-58
2023/02/13 00:43:33;;;;;;;6.47;5.05;;;21.20;34.60;;;;;;5045921;28;20497;-58
2023/02/13 00:45:59;;;;;;;6.80;5.60;;;21.20;34.60;;;;;;5064553;28;20418;-57
2023/02/13 00:48:27;;;;;;;7.53;5.55;;;21.20;34.60;;;;;;5045930;28;20115;-56
2023/02/13 00:50:53;;;;;;;7.18;5.80;;;21.10;34.50;;;;;;5066206;28;20031;-57
2023/02/13 00:53:20;;;;;;;5.80;5.20;;;21.10;34.50;;;;;;5044861;28;20028;-57
2023/02/13 00:55:46;;;;;;;6.18;5.32;;;21.10;34.50;;;;;;5061040;28;20496;-57
2023/02/13 00:58:12;;;;;;;6.70;5.53;;;21.10;34.50;;;;;;5061520;28;20025;-58
2023/02/13 01:00:38;;;;;;;7.50;5.45;;;21.10;34.50;;;;;;5065232;28;20352;-58
2023/02/13 01:03:05;;;;;;;6.55;5.85;;;21.10;34.50;;;;;;5045755;28;20028;-57
2023/02/13 01:05:31;;;;;;;6.05;5.45;;;21.10;34.50;;;;;;5062902;28;20037;-58
2023/02/13 01:07:57;;;;;;;6.15;5.55;;;21.10;34.60;;;;;;5063571;28;20043;-58
2023/02/13 01:10:24;;;;;;;6.38;5.07;;;21.10;34.60;;;;;;5037097;28;20021;-57
2023/02/13 01:12:49;;;;;;;6.57;5.22;;;21.10;34.60;;;;;;5064330;28;20045;-57
2023/02/13 01:15:17;;;;;;;6.57;5.63;;;21.10;34.60;;;;;;5046206;28;20088;-56
2023/02/13 01:17:44;;;;;;;5.93;5.22;;;21.10;34.60;;;;;;5045406;28;20025;-57
2023/02/13 01:20:12;;;;;;;7.22;5.90;;;21.10;34.60;;;;;;5060930;28;20428;-58
2023/02/13 01:22:38;;;;;;;6.82;5.60;;;21.10;34.60;;;;;;5063262;28;20036;-55
2023/02/13 01:25:05;;;;;;;5.47;4.85;;;21.10;34.60;;;;;;5045054;28;20036;-56
2023/02/13 01:27:31;;;;;;;5.78;5.18;;;21.00;34.60;;;;;;5063721;28;20075;-56
2023/02/13 01:29:57;;;;;;;6.47;5.68;;;21.10;34.60;;;;;;5047956;28;20025;-56
2023/02/13 01:32:24;;;;;;;5.53;4.88;;;21.10;34.70;;;;;;5062483;28;20040;-56
2023/02/13 01:34:50;;;;;;;5.72;4.78;;;21.10;34.70;;;;;;5062916;28;20025;-55
2023/02/13 01:37:15;;;;;;;5.57;4.93;;;21.00;34.60;;;;;;5044436;28;20029;-57
2023/02/13 01:39:41;;;;;;;6.38;5.28;;;21.00;34.70;;;;;;5062649;28;20506;-56
2023/02/13 01:42:16;;;;;;;6.65;5.82;;;21.00;34.60;;;;;;5045630;28;20352;-55
2023/02/13 01:44:48;;;;;;;;;;;21.00;34.70;;;;;;5042149;28;20025;-54
2023/02/13 01:47:40;;;;;;;6.25;5.30;;;21.00;34.70;;;;;;5044328;28;20378;-56
2023/02/13 01:50:11;;;;;;;5.70;5.07;;;21.00;34.70;;;;;;5058516;28;20063;-57
2023/02/13 01:52:44;;;;;;;6.43;5.38;;;21.00;34.70;;;;;;5064500;28;20021;-57
2023/02/13 01:55:10;;;;;;;6.47;5.47;;;21.00;34.70;;;;;;5041415;28;20356;-53
2023/02/13 01:57:39;;;;;;;5.88;5.22;;;21.00;34.80;;;;;;5045762;28;20032;-56
2023/02/13 02:00:11;;;;;;;5.97;5.38;;;21.00;34.80;;;;;;5042972;28;20043;-57
2023/02/13 02:03:16;;;;;;;6.25;5.43;;;21.00;34.80;;;;;;5062554;28;20063;-56
2023/02/13 02:05:43;;;;;;;6.78;5.43;;;20.90;34.70;;;;;;5045494;28;20029;-58
2023/02/13 02:08:11;;;;;;;8.20;5.93;;;21.00;34.80;;;;;;5043755;28;20071;-56
2023/02/13 02:10:38;;;;;;;6.60;5.90;;;20.90;34.80;;;;;;5044936;28;20032;-58
2023/02/13 02:13:19;;;;;;;6.32;5.70;;;20.90;34.80;;;;;;5045362;28;20119;-57
2023/02/13 02:15:46;;;;;;;6.28;5.65;;;21.00;34.90;;;;;;5044160;28;20056;-58
2023/02/13 02:18:19;;;;;;;6.55;5.35;;;20.90;34.90;;;;;;5029756;28;20036;-57
2023/02/13 02:20:54;;;;;;;5.88;5.20;;;20.90;34.90;;;;;;5044168;28;20473;-57
2023/02/13 02:24:07;;;;;;;6.40;5.20;;;20.90;34.90;;;;;;5062118;28;20033;-59
2023/02/13 02:26:52;;;;;;;7.22;5.97;;;20.90;35.00;;;;;;4991968;28;20048;-57
2023/02/13 02:29:27;;;;;;;6.68;5.75;;;20.90;35.00;;;;;;4995130;28;20458;-57
2023/02/13 02:32:22;;;;;;;6.20;5.55;;;20.90;35.00;;;;;;5043350;28;20032;-57
2023/02/13 02:35:22;;;;;;;7.35;5.43;;;20.90;35.00;;;;;;5037675;28;20375;-57
2023/02/13 02:38:13;;;;;;;6.45;5.65;;;20.90;35.00;;;;;;5047979;28;20414;-54
2023/02/13 02:40:54;;;;;;;6.40;5.50;;;20.90;35.00;;;;;;5066136;28;20036;-58
2023/02/13 02:43:20;;;;;;;7.65;6.18;;;20.90;35.00;;;;;;5054573;28;20067;-57
2023/02/13 02:46:04;;;;;;;6.78;5.82;;;20.90;35.00;;;;;;5047439;28;20087;-54
2023/02/13 02:51:42;;;;;;;6.55;5.85;;;20.80;35.00;;;;;;5048074;28;20119;-56
2023/02/13 03:06:09;;;;;;;6.90;5.32;;;20.80;35.10;;;;;;5049451;28;20595;-57
2023/02/13 03:14:02;;;;;;;6.78;5.63;;;20.80;35.20;;;;;;5067242;28;20097;-59
2023/02/13 03:22:27;;;;;;;8.20;6.25;;;20.80;35.30;;;;;;5064490;28;20020;-55
2023/02/13 03:25:04;;;;;;;5.85;5.25;;;20.80;35.30;;;;;;5065723;28;20021;-57
2023/02/13 03:30:55;;;;;;;7.43;5.63;;;20.80;35.40;;;;;;5064925;28;20029;-57
2023/02/13 03:33:43;;;;;;;6.20;5.30;;;20.80;35.40;;;;;;5061266;28;20459;-56
2023/02/13 03:39:18;;;;;;;7.78;5.95;;;20.80;35.40;;;;;;5064564;28;20329;-57
2023/02/13 03:41:47;;;;;;;6.60;5.80;;;20.70;35.40;;;;;;5065987;28;20348;-57
2023/02/13 03:44:22;;;;;;;7.80;6.35;;;20.70;35.40;;;;;;5063924;28;20031;-57
2023/02/13 03:46:52;;;;;;;7.10;5.95;;;20.70;35.40;;;;;;5064622;28;20020;-58
2023/02/13 03:52:12;;;;;;;8.32;6.03;;;20.70;35.40;;;;;;5064440;28;20464;-57
2023/02/13 04:00:20;;;;;;;7.63;6.13;;;20.70;35.50;;;;;;5047166;28;20360;-57
2023/02/13 04:02:57;;;;;;;8.10;6.18;;;20.70;35.50;;;;;;5063100;28;20098;-56
2023/02/13 04:05:27;;;;;;;7.00;5.85;;;20.70;35.50;;;;;;5063999;28;20039;-57
2023/02/13 04:07:53;;;;;;;7.13;6.18;;;20.70;35.50;;;;;;5047001;28;20451;-59
2023/02/13 04:10:20;;;;;;;6.50;5.78;;;20.70;35.50;;;;;;5064049;28;20029;-57
2023/02/13 04:13:11;;;;;;;7.53;6.10;;;20.70;35.50;;;;;;5065380;28;20021;-57
2023/02/13 04:16:09;;;;;;;6.22;5.53;;;20.70;35.50;;;;;;5062211;28;20056;-55
2023/02/13 04:18:36;;;;;;;7.15;5.65;;;20.70;35.50;;;;;;5064658;28;20028;-58
2023/02/13 04:21:07;;;;;;;6.50;5.80;;;20.70;35.50;;;;;;5062597;28;20032;-57
2023/02/13 04:23:33;;;;;;;6.30;5.40;;;20.70;35.50;;;;;;5065502;28;20110;-58
2023/02/13 04:26:02;;;;;;;7.53;5.90;;;20.70;35.50;;;;;;5066052;28;20064;-56
2023/02/13 04:28:28;;;;;;;7.15;5.95;;;20.60;35.50;;;;;;5062490;28;20037;-57
2023/02/13 04:30:54;;;;;;;6.45;5.40;;;20.70;35.60;;;;;;5062170;28;20043;-57
2023/02/13 04:33:20;;;;;;;6.53;5.40;;;20.70;35.60;;;;;;5064570;28;20100;-57
2023/02/13 04:35:46;;;;;;;6.63;5.93;;;20.70;35.60;;;;;;5046921;28;20063;-57
2023/02/13 04:38:12;;;;;;;7.32;6.15;;;20.70;35.60;;;;;;5062642;28;20093;-57
2023/02/13 04:40:37;;;;;;;9.07;6.22;;;20.60;35.50;;;;;;5065413;28;20086;-57
2023/02/13 04:43:03;;;;;;;7.88;6.10;;;20.60;35.60;;;;;;5062518;28;20326;-57
2023/02/13 04:45:29;;;;;;;7.30;6.20;;;20.60;35.60;;;;;;5046112;28;20028;-57
2023/02/13 04:47:56;;;;;;;8.43;6.68;;;20.60;35.60;;;;;;5064384;28;20044;-57
2023/02/13 04:50:23;;;;;;;7.60;6.30;;;20.60;35.60;;;;;;5044772;28;20025;-57
2023/02/13 04:52:56;;;;;;;6.28;5.43;;;20.60;35.60;;;;;;5063265;28;20033;-57
2023/02/13 04:55:23;;;;;;;7.47;6.47;;;20.60;35.60;;;;;;5062289;28;20043;-55
2023/02/13 04:57:52;;;;;;;7.43;6.18;;;20.60;35.60;;;;;;5062010;28;20092;-57
2023/02/13 05:00:20;;;;;;;7.18;6.30;;;20.60;35.60;;;;;;5065176;28;20352;-56
2023/02/13 05:02:45;;;;;;;6.95;5.78;;;20.60;35.60;;;;;;5062513;28;20115;-56
2023/02/13 05:05:11;;;;;;;6.45;5.85;;;20.60;35.70;;;;;;5063484;28;20528;-56
2023/02/13 05:07:37;;;;;;;7.25;6.05;;;20.60;35.70;;;;;;5062882;28;20067;-58
2023/02/13 05:10:04;;;;;;;6.90;6.20;;;20.60;35.70;;;;;;5062029;28;20444;-59
2023/02/13 05:12:29;;;;;;;7.05;6.35;;;20.60;35.70;;;;;;5031891;28;20024;-55
2023/02/13 05:14:55;;;;;;;6.75;5.55;;;20.60;35.70;;;;;;5062939;28;20049;-56
2023/02/13 05:17:21;;;;;;;7.50;6.70;;;20.50;35.70;;;;;;5063822;28;20048;-57
2023/02/13 05:19:47;;;;;;;6.65;5.70;;;20.60;35.70;;;;;;5061082;28;20024;-58
2023/02/13 05:24:57;;;;;;;7.57;6.18;;;20.50;35.70;;;;;;5062486;28;20052;-57
2023/02/13 05:27:23;;;;;;;6.85;6.07;;;20.50;35.80;;;;;;5062041;28;20083;-56
2023/02/13 05:29:48;;;;;;;7.32;5.93;;;20.60;35.80;;;;;;5063615;28;20060;-55
2023/02/13 05:32:14;;;;;;;6.55;5.85;;;20.60;35.90;;;;;;5062270;28;20078;-57
2023/02/13 05:34:40;;;;;;;8.25;6.00;;;20.50;35.80;;;;;;5063623;28;20028;-59
2023/02/13 05:37:06;;;;;;;7.40;6.15;;;20.50;35.80;;;;;;5063882;28;20448;-55
2023/02/13 05:39:32;;;;;;;7.25;6.40;;;20.50;35.80;;;;;;5062545;28;20021;-54
2023/02/13 05:41:57;;;;;;;7.72;6.65;;;20.50;35.90;;;;;;5062762;28;20483;-57
2023/02/13 05:44:23;;;;;;;7.10;6.07;;;20.50;35.80;;;;;;5061511;28;20029;-56
2023/02/13 05:46:49;;;;;;;8.63;6.38;;;20.50;35.90;;;;;;5062312;28;20017;-57
2023/02/13 05:49:15;;;;;;;7.65;6.50;;;20.50;35.90;;;;;;5062811;28;20367;-56
2023/02/13 05:51:42;;;;;;;7.53;6.40;;;20.50;35.90;;;;;;5061250;28;20090;-57
2023/02/13 05:54:08;;;;;;;6.18;5.38;;;20.50;35.90;;;;;;5062557;28;20119;-57
2023/02/13 05:56:34;;;;;;;6.72;5.72;;;20.50;35.90;;;;;;5062246;28;20107;-55
2023/02/13 05:58:59;;;;;;;7.03;6.32;;;20.50;35.90;;;;;;5045264;28;20025;-57
2023/02/13 06:01:25;;;;;;;6.72;6.00;;;20.50;35.90;;;;;;5063460;28;20025;-57
2023/02/13 06:03:51;;;;;;;8.15;6.70;;;20.50;35.90;;;;;;5060614;28;20028;-57
2023/02/13 06:06:17;;;;;;;7.40;6.22;;;20.50;36.00;;;;;;5060926;28;20729;-57
2023/02/13 06:08:43;;;;;;;6.70;5.90;;;20.50;36.10;;;;;;5062740;28;20042;-55
2023/02/13 06:11:10;;;;;;;8.45;6.70;;;20.50;36.00;;;;;;5061078;28;20112;-56
2023/02/13 06:13:39;;;;;;;7.20;6.50;;;20.50;36.00;;;;;;5063910;28;20091;-58
2023/02/13 06:16:07;;;;;;;7.05;6.30;;;20.50;36.00;;;;;;5061367;28;20147;-56
2023/02/13 06:18:33;;;;;;;7.40;6.03;;;20.50;36.00;;;;;;5060746;28;20037;-57
2023/02/13 06:20:59;;;;;;;7.07;6.25;;;20.50;36.10;;;;;;5061918;28;20029;-55
2023/02/13 06:23:25;;;;;;;6.93;6.10;;;20.50;36.10;;;;;;5044383;28;20135;-57
2023/02/13 06:25:51;;;;;;;7.15;6.45;;;20.40;36.00;;;;;;5043385;28;20020;-57
2023/02/13 06:28:17;;;;;;;7.22;5.82;;;20.50;36.10;;;;;;5061703;28;20044;-57
2023/02/13 06:30:42;;;;;;;8.23;6.55;;;20.40;36.00;;;;;;5062965;28;20040;-58
2023/02/13 06:33:08;;;;;;;7.03;5.75;;;20.50;36.10;;;;;;5062054;28;20024;-58
2023/02/13 06:35:34;;;;;;;9.23;6.03;;;20.40;36.10;;;;;;5061358;28;20376;-57
2023/02/13 06:38:00;;;;;;;6.97;5.45;;;20.40;36.10;;;;;;5060822;28;20115;-57
2023/02/13 06:40:26;;;;;;;7.43;6.13;;;20.40;36.10;;;;;;5064458;28;20373;-57
2023/02/13 06:42:52;;;;;;;7.47;5.68;;;20.40;36.10;;;;;;5061963;28;20393;-56
2023/02/13 06:45:17;;;;;;;7.28;5.43;;;20.40;36.20;;;;;;5062379;28;20028;-56
2023/02/13 06:47:45;;;;;;;7.45;6.03;;;20.40;36.20;;;;;;5063228;28;20045;-58
2023/02/13 06:50:12;;;;;;;6.65;5.53;;;20.40;36.20;;;;;;5062242;28;20021;-55
2023/02/13 06:52:38;;;;;;;6.85;6.07;;;20.40;36.20;;;;;;5061718;28;20021;-56
2023/02/13 06:55:04;;;;;;;8.75;6.28;;;20.40;36.20;;;;;;5043468;28;20546;-57
2023/02/13 06:57:32;;;;;;;6.80;5.72;;;20.40;36.20;;;;;;5063798;28;20111;-57
2023/02/13 07:00:04;;;;;;;6.43;5.38;;;20.40;36.30;;;;;;5062408;28;20024;-56
2023/02/13 07:02:33;;;;;;;6.53;5.82;;;20.40;36.30;;;;;;5060462;28;20033;-58
2023/02/13 07:04:59;;;;;;;5.97;5.32;;;20.40;36.30;;;;;;5045788;28;20348;-57
2023/02/13 07:07:24;;;;;;;5.65;4.85;;;20.40;36.30;;;;;;5059958;28;20033;-57
2023/02/13 07:09:50;;;;;;;5.85;5.25;;;20.40;36.50;;;;;;5062962;28;20116;-57
2023/02/13 07:12:16;;;;;;;7.20;5.75;;;20.40;36.50;;;;;;5062423;28;20385;-57
2023/02/13 07:14:42;;;;;;;6.40;5.32;;;20.40;36.50;;;;;;5064223;28;20136;-60
2023/02/13 07:17:09;;;;;;;6.47;5.28;;;20.40;36.50;;;;;;5065115;28;20104;-57
2023/02/13 07:19:35;;;;;;;5.80;4.78;;;20.40;36.50;;;;;;5066487;28;20027;-57
2023/02/13 07:22:01;;;;;;;5.75;5.15;;;20.40;36.50;;;;;;5061708;28;20021;-56
2023/02/13 07:24:27;;;;;;;6.22;5.18;;;20.40;36.50;;;;;;5064974;28;20498;-58
2023/02/13 07:26:53;;;;;;;7.10;5.10;;;20.40;36.60;;;;;;5066661;28;20039;-57
2023/02/13 07:29:19;;;;;;;7.32;5.38;;;20.40;36.60;;;;;;5067206;28;20025;-58
2023/02/13 07:31:44;;;;;;;6.63;5.25;;;20.40;36.60;;;;;;5062353;28;20021;-59
2023/02/13 07:34:10;;;;;;;6.10;4.88;;;20.40;36.70;;;;;;5065419;28;20356;-55
2023/02/13 07:36:36;;;;;;;7.00;5.88;;;20.40;36.70;;;;;;5062833;28;20440;-55
2023/02/13 07:39:02;;;;;;;7.15;5.70;;;20.40;36.70;;;;;;5062948;28;20029;-57
2023/02/13 07:41:28;;;;;;;7.85;5.55;;;20.40;36.70;;;;;;5063474;28;21172;-57
2023/02/13 07:43:53;;;;;;;7.95;5.75;;;20.40;36.70;;;;;;5057904;28;20025;-57
2023/02/13 07:46:19;;;;;;;7.25;5.40;;;20.40;36.80;;;;;;5064838;28;20094;-53
2023/02/13 07:48:45;;;;;;;6.88;4.95;;;20.40;36.80;;;;;;5058020;28;20089;-58
2023/02/13 07:51:11;;;;;;;8.68;5.32;;;20.40;36.80;;;;;;5058008;28;20029;-58
2023/02/13 07:53:37;;;;;;;5.90;4.55;;;20.40;36.90;;;;;;5066499;28;20444;-58
2023/02/13 07:56:06;;;;;;;5.45;4.57;;;20.40;36.90;;;;;;5064903;28;20048;-57
2023/02/13 07:58:32;;;;;;;5.53;4.38;;;20.40;37.00;;;;;;5064212;28;20028;-58
2023/02/13 08:00:58;;;;;;;6.97;4.38;;;20.40;37.00;;;;;;5066403;28;20145;-54
2023/02/13 08:03:24;;;;;;;6.65;4.50;;;20.40;37.10;;;;;;5064632;28;20068;-56
2023/02/13 08:05:49;;;;;;;5.35;4.00;;;20.40;37.10;;;;;;5063770;28;20074;-57
2023/02/13 08:08:16;;;;;;;4.90;3.72;;;20.40;37.20;;;;;;5065318;28;20041;-57
2023/02/13 08:13:26;;;;;;;5.55;4.43;;;20.50;37.20;;;;;;5068700;28;20436;-57
2023/02/13 08:15:52;;;;;;;6.65;4.30;;;20.50;37.20;;;;;;5064634;28;20045;-57
2023/02/13 08:18:18;;;;;;;4.57;3.90;;;20.50;37.20;;;;;;5063720;28;20047;-58
2023/02/13 08:20:44;;;;;;;4.90;3.70;;;20.50;37.10;;;;;;5060363;28;20115;-57
2023/02/13 08:23:11;;;;;;;6.03;4.38;;;20.60;37.10;;;;;;5038493;28;20036;-58
2023/02/13 08:25:37;;;;;;;6.43;4.22;;;20.60;37.00;;;;;;5060262;28;20452;-57
2023/02/13 08:28:04;;;;;;;6.05;4.47;;;20.60;37.00;;;;;;5063556;28;20036;-56
2023/02/13 08:30:30;;;;;;;7.55;4.07;;;20.70;37.00;;;;;;5045883;28;20036;-57
2023/02/13 08:32:56;;;;;;;6.55;4.15;;;20.70;37.00;;;;;;5048232;28;20036;-56
2023/02/13 08:35:25;;;;;;;5.97;4.18;;;20.70;36.90;;;;;;5067976;28;20051;-56
2023/02/13 08:37:52;;;;;;;5.75;4.20;;;20.80;36.90;;;;;;5058765;28;20060;-55
2023/02/13 08:40:18;;;;;;;5.93;4.55;;;20.80;36.80;;;;;;5055686;28;20029;-55
2023/02/13 08:42:44;;;;;;;6.82;4.70;;;20.80;36.80;;;;;;5060111;28;20055;-57
2023/02/13 08:45:10;;;;;;;6.20;4.47;;;20.80;37.30;;;;;;5058516;28;20025;-57
2023/02/13 08:47:38;;;;;;;7.00;4.20;;;20.80;36.70;;;;;;5053029;28;20045;-57
2023/02/13 08:50:05;;;;;;;5.20;4.03;;;20.90;36.70;;;;;;5057329;28;20040;-55
2023/02/13 08:52:31;;;;;;;8.90;4.20;;;20.90;36.60;;;;;;5058124;28;20119;-56
2023/02/13 08:54:57;;;;;;;5.10;4.07;;;20.90;36.60;;;;;;5059894;28;20108;-57
2023/02/13 08:57:23;;;;;;;6.35;4.38;;;21.00;36.60;;;;;;5055423;28;20429;-57
2023/02/13 08:59:48;;;;;;;5.85;4.35;;;21.00;36.50;;;;;;5057552;28;20415;-55
2023/02/13 09:02:14;;;;;;;5.50;4.60;;;21.00;36.50;;;;;;5051625;28;20048;-58
2023/02/13 09:04:40;;;;;;;5.90;4.05;;;21.00;36.50;;;;;;5049867;28;20036;-57
2023/02/13 09:07:06;;;;;;;5.15;4.35;;;21.00;36.50;;;;;;5058825;28;20086;-58
2023/02/13 09:09:32;;;;;;;5.90;4.45;;;21.00;36.50;;;;;;5061054;28;20082;-56
2023/02/13 09:11:59;;;;;;;6.15;4.68;;;21.00;36.50;;;;;;5038711;28;20062;-55
2023/02/13 09:14:25;;;;;;;6.13;4.40;;;21.00;36.50;;;;;;5060732;28;20131;-55
2023/02/13 09:16:51;;;;;;;5.95;4.55;;;21.10;36.50;;;;;;5040537;28;20032;-55
2023/02/13 09:19:17;;;;;;;5.45;4.60;;;21.10;36.50;;;;;;5058379;28;20059;-58
2023/02/13 09:21:44;;;;;;;5.95;4.63;;;21.10;37.20;;;;;;5062311;28;20024;-56
2023/02/13 09:24:10;;;;;;;6.70;3.97;;;21.10;36.50;;;;;;5059826;28;20020;-58
2023/02/13 09:26:36;;;;;;;5.63;4.43;;;21.10;36.60;;;;;;5058042;28;20033;-57
2023/02/13 09:29:02;;;;;;;5.07;4.38;;;21.10;36.70;;;;;;5060088;28;20515;-59
2023/02/13 09:31:28;;;;;;;6.18;4.47;;;21.10;36.70;;;;;;5045291;28;20464;-54
2023/02/13 09:33:54;;;;;;;5.15;3.75;;;21.10;36.70;;;;;;5063820;28;20107;-57
2023/02/13 09:36:22;;;;;;;5.60;4.30;;;21.10;36.80;;;;;;5063474;28;20321;-59
2023/02/13 09:38:54;;;;;;;7.55;4.07;;;21.10;36.80;;;;;;5062138;28;20475;-58
2023/02/13 09:41:34;;;;;;;6.30;4.15;;;21.10;36.80;;;;;;5059467;28;20136;-57
2023/02/13 09:43:59;;;;;;;4.95;3.78;;;21.10;36.80;;;;;;5061652;28;20028;-55
2023/02/13 09:46:36;;;;;;;5.68;4.18;;;21.10;36.80;;;;;;5060422;28;20360;-58
2023/02/13 09:49:13;;;;;;;6.13;4.20;;;21.10;36.80;;;;;;5061590;28;20103;-55
2023/02/13 09:51:41;;;;;;;4.82;4.05;;;21.10;36.70;;;;;;5065595;28;20422;-54
2023/02/13 09:54:12;;;;;;;5.07;3.97;;;21.10;36.70;;;;;;5060978;28;20441;-56
2023/02/13 09:56:48;;;;;;;5.25;3.47;;;21.10;36.70;;;;;;5061935;28;20024;-58
2023/02/13 09:59:41;;;;;;;5.43;3.88;;;21.10;36.70;;;;;;5064297;28;20021;-57
2023/02/13 10:02:38;;;;;;;4.80;3.15;;;21.20;36.70;;;;;;5058210;28;20562;-58
2023/02/13 10:05:19;;;;;;;6.68;3.70;;;21.20;36.70;;;;;;5064061;28;20099;-55
2023/02/13 10:08:17;;;;;;;4.90;3.80;;;21.10;36.60;;;;;;5064005;28;20067;-58
2023/02/13 10:11:08;;;;;;;5.25;3.33;;;21.10;36.50;;;;;;5062040;28;20036;-59
2023/02/13 10:13:42;;;;;;;4.60;3.50;;;21.10;36.50;;;;;;5043920;28;20057;-57
2023/02/13 10:16:33;;;;;;;5.00;3.72;;;21.10;36.50;;;;;;5063434;28;20048;-57
2023/02/13 10:19:17;;;;;;;4.63;3.90;;;21.10;36.50;;;;;;5061213;28;20408;-57
2023/02/13 10:21:54;;;;;;;4.90;3.60;;;21.10;36.50;;;;;;5061415;28;20028;-57
2023/02/13 10:24:55;;;;;;;5.32;3.40;;;21.10;36.40;;;;;;5062179;28;20500;-52
2023/02/13 10:27:24;;;;;;;4.35;3.30;;;21.10;36.40;;;;;;5057028;28;20120;-57
2023/02/13 10:30:05;;;;;;;4.70;3.40;;;21.10;36.40;;;;;;5045654;28;20345;-58
2023/02/13 10:32:42;;;;;;;4.28;3.40;;;21.20;36.40;;;;;;5061045;28;20028;-58
2023/02/13 10:35:27;;;;;;;4.43;3.45;;;21.10;36.40;;;;;;5045512;28;20115;-57
2023/02/13 10:37:56;;;;;;;4.10;3.40;;;21.20;36.40;;;;;;5061827;28;20100;-58
2023/02/13 10:40:36;;;;;;;3.35;2.80;;;21.20;36.40;;;;;;5043748;28;20035;-58
2023/02/13 10:43:12;;;;;;;5.07;3.45;;;21.20;36.30;;;;;;5063406;28;20040;-57
2023/02/13 10:45:53;;;;;;;4.22;3.63;;;21.20;36.30;;;;;;5061865;28;20027;-58
2023/02/13 10:48:51;;;;;;;4.30;3.40;;;21.20;36.30;;;;;;5065458;28;20044;-57
2023/02/13 10:51:53;;;;;;;4.75;3.28;;;21.20;36.20;;;;;;5067213;28;20025;-58
2023/02/13 10:54:35;;;;;;;4.28;3.30;;;21.20;36.20;;;;;;5061592;28;20043;-58
2023/02/13 10:57:15;;;;;;;4.57;3.72;;;21.20;36.20;;;;;;5066320;28;20029;-57
2023/02/13 11:00:12;;;;;;;4.72;3.60;;;21.20;36.30;;;;;;5065548;28;20020;-55
2023/02/13 11:02:40;;;;;;;5.00;3.55;;;21.20;36.20;;;;;;5063778;28;20052;-58
2023/02/13 11:05:15;;;;;;;4.30;3.33;;;21.20;36.20;;;;;;5066221;28;20028;-56
2023/02/13 11:07:43;;;;;;;4.07;3.45;;;21.20;36.30;;;;;;5065171;28;20087;-58
2023/02/13 11:10:18;;;;;;;5.00;3.75;;;21.20;36.20;;;;;;5067963;28;20028;-58
2023/02/13 11:12:44;;;;;;;4.15;3.63;;;21.20;36.20;;;;;;5064858;28;20032;-58
2023/02/13 11:15:20;;;;;;;3.38;3.00;;;21.20;36.20;;;;;;5064926;28;20120;-58
2023/02/13 11:17:46;;;;;;;4.45;2.95;;;21.20;36.20;;;;;;5065373;28;20110;-56
2023/02/13 11:20:35;;;;;;;4.85;3.63;;;21.20;36.20;;;;;;5063637;28;20471;-57
2023/02/13 11:23:22;;;;;;;4.03;2.92;;;21.20;36.10;;;;;;5066645;28;20028;-59
2023/02/13 11:26:00;;;;;;;4.47;3.03;;;21.20;36.10;;;;;;5066989;28;20450;-58
2023/02/13 11:28:28;;;;;;;3.85;2.83;;;21.20;36.40;;;;;;5065484;28;20033;-57
2023/02/13 11:31:21;;;;;;;4.47;2.95;;;21.20;36.60;;;;;;5065941;28;20051;-59
2023/02/13 11:33:47;;;;;;;4.18;3.08;;;21.20;36.60;;;;;;5064899;28;20025;-57
2023/02/13 11:36:32;;;;;;;3.38;3.03;;;21.20;36.60;;;;;;5045696;28;20043;-58
2023/02/13 11:39:16;;;;;;;4.18;3.00;;;21.20;36.60;;;;;;5070875;28;20024;-58
2023/02/13 11:41:44;;;;;;;4.10;3.28;;;21.20;36.60;;;;;;5065724;28;20036;-56
2023/02/13 11:44:26;;;;;;;4.30;3.15;;;21.20;36.60;;;;;;5046226;28;20120;-59
2023/02/13 11:46:54;;;;;;;4.40;3.20;;;21.20;36.60;;;;;;5051941;28;20043;-58
2023/02/13 11:49:26;;;;;;;2.90;2.60;;;21.20;36.60;;;;;;5062456;28;20045;-60
2023/02/13 11:51:53;;;;;;;3.92;2.97;;;21.20;36.60;;;;;;5066038;28;20028;-58
2023/02/13 11:54:40;;;;;;;4.20;3.53;;;21.20;36.60;;;;;;5062405;28;20456;-58
2023/02/13 11:57:35;;;;;;;4.55;2.63;;;21.20;36.60;;;;;;5044236;28;20025;-59
2023/02/13 12:00:20;;;;;;;;;;;21.20;36.50;;;;;;5067674;28;20052;-57
2023/02/13 12:02:49;;;;;;;4.43;2.58;;;21.20;36.60;;;;;;5055785;28;19916;-56
2023/02/13 12:05:19;;;;;;;3.25;2.78;;;21.20;36.50;;;;;;5062594;28;20029;-59
2023/02/13 12:07:46;;;;;;;3.08;2.40;;;21.10;36.50;;;;;;5064723;28;20036;-55
2023/02/13 12:10:25;;;;;;;3.53;2.88;;;21.20;37.20;;;;;;5046354;28;20526;-56
2023/02/13 12:13:19;;;;;;;3.88;2.92;;;21.10;36.50;;;;;;5047969;28;20521;-58
2023/02/13 12:15:49;;;;;;;3.50;3.00;;;21.20;36.60;;;;;;5066429;28;20111;-59
2023/02/13 12:18:25;;;;;;;4.03;2.78;;;21.20;36.60;;;;;;5064097;28;20043;-58
2023/02/13 12:20:50;;;;;;;4.60;3.00;;;21.20;36.60;;;;;;5056741;28;20035;-57
2023/02/13 12:23:31;;;;;;;3.53;2.85;;;21.10;36.60;;;;;;5061369;28;20360;-58
2023/02/13 12:26:19;;;;;;;4.18;3.03;;;21.20;36.70;;;;;;5059095;28;20029;-54
2023/02/13 12:29:06;;;;;;;3.92;3.13;;;21.20;36.70;;;;;;5062069;28;20045;-57
2023/02/13 12:31:55;;;;;;;7.45;3.25;;;21.10;36.70;;;;;;5063682;28;20036;-57
2023/02/13 12:34:52;;;;;;;2.95;2.42;;;21.10;36.70;;;;;;5043891;28;20102;-56
2023/02/13 12:37:34;;;;;;;4.80;3.40;;;21.10;36.70;;;;;;5070708;28;20031;-57
2023/02/13 12:40:00;;;;;;;3.55;2.67;;;21.10;36.80;;;;;;5043136;28;20395;-56
2023/02/13 12:42:54;;;;;;;4.53;3.05;;;21.10;37.60;;;;;;5068503;28;20028;-53
2023/02/13 12:45:29;;;;;;;7.03;3.05;;;21.20;38.40;;;;;;5056152;28;20025;-56
2023/02/13 12:48:25;;;;;;;4.10;3.10;;;21.20;38.80;;;;;;5056110;28;20048;-56
2023/02/13 12:51:02;;;;;;;5.05;3.20;;;21.20;39.00;;;;;;5055424;28;20029;-57
2023/02/13 12:53:52;;;;;;;4.95;2.90;;;21.20;39.20;;;;;;5060874;28;20020;-57
2023/02/13 12:56:45;;;;;;;6.28;3.17;;;21.20;39.30;;;;;;5063742;28;20031;-57
2023/02/13 12:59:35;;;;;;;5.22;2.83;;;21.30;39.50;;;;;;5063900;28;20434;-57
2023/02/13 13:02:30;;;;;;;3.80;3.13;;;21.30;39.50;;;;;;5059882;28;20024;-53
2023/02/13 13:05:03;;;;;;;4.15;3.00;;;21.30;39.60;;;;;;5060421;28;20029;-56
2023/02/13 13:07:56;;;;;;;3.85;2.72;;;21.30;39.60;;;;;;5060320;28;20051;-57
2023/02/13 13:10:36;;;;;;;4.07;3.00;;;21.40;39.60;;;;;;5064928;28;20029;-57
2023/02/13 13:13:14;;;;;;;3.38;2.90;;;21.50;39.60;;;;;;5063967;28;20033;-55
2023/02/13 13:16:16;;;;;;;3.60;2.80;;;21.60;39.60;;;;;;5063002;28;20053;-58
2023/02/13 13:18:47;;;;;;;3.70;2.90;;;21.70;39.30;;;;;;4990813;28;20034;-58
2023/02/13 13:21:51;;;;;;;4.25;3.25;;;21.80;39.20;;;;;;5050563;28;20060;-57
2023/02/13 13:24:24;;;;;;;3.10;2.55;;;21.90;39.00;;;;;;5064497;28;20056;-57
2023/02/13 13:26:53;;;;;;;4.00;3.25;;;22.10;38.80;;;;;;5059531;28;20040;-56
2023/02/13 13:29:26;;;;;;;3.33;2.70;;;22.20;38.60;;;;;;5045277;28;20055;-60
2023/02/13 13:32:01;;;;;;;3.05;2.63;;;22.30;38.50;;;;;;5058552;28;20086;-56
2023/02/13 13:34:29;;;;;;;2.80;2.33;;;22.40;38.50;;;;;;5060882;28;20021;-57
2023/02/13 13:37:20;;;;;;;3.25;2.38;;;22.40;38.30;;;;;;5062753;28;20455;-55
2023/02/13 13:39:56;;;;;;;3.58;2.60;;;22.50;38.40;;;;;;5063205;28;20020;-58
2023/02/13 13:42:49;;;;;;;2.97;2.60;;;22.60;38.30;;;;;;5059327;28;20048;-61
2023/02/13 13:45:21;;;;;;;3.08;2.65;;;22.70;38.20;;;;;;5043294;28;20029;-55
2023/02/13 13:48:24;;;;;;;2.80;2.47;;;22.70;38.20;;;;;;5061657;28;20509;-55
2023/02/13 13:50:51;;;;;;;2.53;2.20;;;22.80;38.10;;;;;;5064626;28;20024;-56
2023/02/13 13:53:22;;;;;;;3.35;2.72;;;22.90;38.10;;;;;;5061074;28;20112;-60
2023/02/13 13:55:57;;;;;;;3.50;2.70;;;22.90;38.00;;;;;;5063820;28;20368;-60
2023/02/13 13:58:40;;;;;;;3.42;2.75;;;23.00;38.00;;;;;;5058594;28;20123;-60
2023/02/13 14:01:17;;;;;;;5.28;2.70;;;23.00;38.00;;;;;;5071229;28;20040;-61